Time;durP1;ratioP1;P1;durP2;ratioP2;P2;SDS_P1;SDS_P2;PMS_P1;PMS_P2;Temp;Humidity;BMP_temperature;BMP_pressure;BME280_temperature;BME280_humidity;BME280_pressure;Samples;Min_cycle;Max_cycle;Signal;HPM_P1;HPM_P2
2021/12/06 00:00:35;;;;;;;55.55;11.63;;;0.40;99.90;;;;;;4950615;29;20484;-60
2021/12/06 00:03:05;;;;;;;64.28;11.00;;;0.40;99.90;;;;;;4950503;29;20038;-60
2021/12/06 00:05:32;;;;;;;28.27;8.60;;;0.30;99.90;;;;;;4951904;28;20039;-60
2021/12/06 00:07:57;;;;;;;27.90;8.45;;;0.30;99.90;;;;;;4950558;29;20831;-60
2021/12/06 00:10:24;;;;;;;24.38;7.40;;;0.30;99.90;;;;;;4950681;29;20102;-60
2021/12/06 00:12:49;;;;;;;36.17;7.72;;;0.30;99.90;;;;;;4950943;29;20063;-60
2021/12/06 00:15:18;;;;;;;29.02;7.72;;;0.30;99.90;;;;;;4950025;29;20070;-60
2021/12/06 00:17:46;;;;;;;36.38;7.43;;;0.30;99.90;;;;;;4950766;29;20067;-61
2021/12/06 00:20:16;;;;;;;24.23;6.85;;;0.30;99.90;;;;;;4950382;28;20031;-60
2021/12/06 00:22:42;;;;;;;;;;;0.30;99.90;;;;;;4950555;29;20428;-60
2021/12/06 00:25:09;;;;;;;24.75;6.05;;;0.20;99.90;;;;;;4947562;29;19978;-60
2021/12/06 00:27:38;;;;;;;49.83;6.28;;;0.20;99.90;;;;;;4951295;29;20039;-60
2021/12/06 00:30:11;;;;;;;69.20;6.13;;;0.20;99.90;;;;;;4949360;29;20035;-60
2021/12/06 00:32:37;;;;;;;26.17;5.38;;;0.10;99.90;;;;;;4950416;29;20027;-60
2021/12/06 00:35:04;;;;;;;11.70;4.45;;;0.10;99.90;;;;;;4949123;28;20082;-60
2021/12/06 00:37:34;;;;;;;20.10;5.60;;;0.10;99.90;;;;;;4950925;29;20130;-60
2021/12/06 00:40:04;;;;;;;13.30;5.10;;;0.10;99.90;;;;;;4953092;28;20058;-60
2021/12/06 00:42:33;;;;;;;12.98;5.32;;;0.20;99.90;;;;;;4954447;29;20046;-60
2021/12/06 00:45:01;;;;;;;58.58;6.28;;;0.20;99.90;;;;;;4952476;29;20474;-61
2021/12/06 00:47:27;;;;;;;16.60;6.10;;;0.20;99.90;;;;;;4954225;29;20035;-60
2021/12/06 00:49:53;;;;;;;15.65;5.55;;;0.20;99.90;;;;;;4953937;29;20038;-60
2021/12/06 00:52:20;;;;;;;46.28;6.72;;;0.10;99.90;;;;;;4953861;29;20038;-60
2021/12/06 00:54:46;;;;;;;22.85;6.35;;;0.10;99.90;;;;;;4953903;29;20093;-60
2021/12/06 00:57:14;;;;;;;27.00;7.07;;;0.10;99.90;;;;;;4953806;29;20047;-60
2021/12/06 00:59:40;;;;;;;54.85;8.45;;;0.00;99.90;;;;;;4953702;29;20042;-60
2021/12/06 01:02:07;;;;;;;50.22;8.50;;;0.10;99.90;;;;;;4953443;29;20031;-60
2021/12/06 01:04:35;;;;;;;31.20;8.43;;;0.10;99.90;;;;;;4953657;29;20059;-60
2021/12/06 01:07:02;;;;;;;42.67;9.65;;;0.00;99.90;;;;;;4953325;28;20090;-60
2021/12/06 01:09:28;;;;;;;25.33;9.13;;;0.10;99.90;;;;;;4953738;29;20031;-60
2021/12/06 01:11:54;;;;;;;42.05;9.80;;;0.10;99.90;;;;;;4953656;29;20027;-60
2021/12/06 01:14:20;;;;;;;25.42;9.77;;;0.10;99.90;;;;;;4936803;29;20062;-60
2021/12/06 01:16:45;;;;;;;71.22;11.15;;;0.10;99.90;;;;;;4953834;29;20039;-60
2021/12/06 01:19:11;;;;;;;26.52;8.93;;;0.10;99.90;;;;;;4952781;29;20681;-60
2021/12/06 01:21:48;;;;;;;29.85;9.57;;;0.10;99.90;;;;;;4953658;29;20031;-60
2021/12/06 01:24:17;;;;;;;26.70;8.75;;;0.10;99.90;;;;;;4952912;29;20034;-60
2021/12/06 01:27:09;;;;;;;28.80;9.43;;;0.20;99.90;;;;;;4953441;29;20720;-60
2021/12/06 01:30:21;;;;;;;29.67;9.10;;;0.20;99.90;;;;;;4948061;29;20035;-60
2021/12/06 01:33:02;;;;;;;31.88;9.05;;;0.20;99.90;;;;;;4952286;29;20137;-60
2021/12/06 01:40:47;;;;;;;29.88;8.25;;;0.10;99.90;;;;;;4952628;29;20051;-60
2021/12/06 01:43:12;;;;;;;20.20;7.97;;;0.10;99.90;;;;;;4952170;29;20097;-60
2021/12/06 01:45:38;;;;;;;25.67;8.45;;;0.20;99.90;;;;;;4953184;29;20043;-60
2021/12/06 01:48:04;;;;;;;23.50;8.10;;;0.20;99.90;;;;;;4952560;29;20600;-60
2021/12/06 01:50:30;;;;;;;23.35;8.52;;;0.30;99.90;;;;;;4954442;28;20074;-60
2021/12/06 01:52:59;;;;;;;31.77;8.95;;;0.30;99.90;;;;;;4951591;28;20082;-60
2021/12/06 01:55:31;;;;;;;43.47;10.20;;;0.30;99.90;;;;;;4953375;29;20027;-60
2021/12/06 01:57:58;;;;;;;21.40;8.27;;;0.40;99.90;;;;;;4956892;28;20046;-60
2021/12/06 02:00:33;;;;;;;26.33;9.07;;;0.40;99.90;;;;;;4952903;29;20035;-60
2021/12/06 02:02:59;;;;;;;38.35;9.77;;;0.40;99.90;;;;;;4952045;29;20031;-60
2021/12/06 02:05:25;;;;;;;29.10;9.98;;;0.40;99.90;;;;;;4953178;29;20027;-60
2021/12/06 02:07:51;;;;;;;51.40;11.85;;;0.30;99.90;;;;;;4952587;29;20063;-60
2021/12/06 02:10:18;;;;;;;46.03;14.82;;;0.30;99.90;;;;;;4952243;29;20027;-60
2021/12/06 02:12:46;;;;;;;36.78;11.30;;;0.30;99.90;;;;;;4952381;28;20045;-60
2021/12/06 02:15:57;;;;;;;29.05;10.93;;;0.30;99.90;;;;;;4952059;29;20026;-60
2021/12/06 02:18:07;;;;;;;32.13;10.98;;;0.30;99.90;;;;;;4944587;29;20515;-61
2021/12/06 02:20:41;;;;;;;40.80;9.48;;;0.30;99.90;;;;;;4952517;29;20031;-61
2021/12/06 02:23:07;;;;;;;52.30;15.20;;;0.30;99.90;;;;;;4950964;29;20042;-60
2021/12/06 02:25:33;;;;;;;86.43;9.15;;;0.20;99.90;;;;;;4952468;29;20048;-60
2021/12/06 02:27:59;;;;;;;155.75;12.02;;;0.20;99.90;;;;;;4951977;29;20075;-60
2021/12/06 02:30:25;;;;;;;179.55;10.57;;;0.20;99.90;;;;;;4952268;29;20027;-60
2021/12/06 02:32:51;;;;;;;250.50;13.38;;;0.30;99.90;;;;;;4951904;29;20468;-60
2021/12/06 02:35:20;;;;;;;94.93;8.75;;;0.30;99.90;;;;;;4952079;29;20027;-60
2021/12/06 02:37:47;;;;;;;32.72;8.77;;;0.20;99.90;;;;;;4952209;29;20412;-60
2021/12/06 02:40:25;;;;;;;26.15;9.23;;;0.20;99.90;;;;;;4951429;29;20602;-60
2021/12/06 02:42:55;;;;;;;41.10;8.63;;;0.30;99.90;;;;;;4950699;29;20110;-60
2021/12/06 02:45:24;;;;;;;34.00;10.53;;;0.30;99.90;;;;;;4951824;28;20563;-60
2021/12/06 02:47:53;;;;;;;48.03;11.50;;;0.30;99.90;;;;;;4952010;29;20063;-60
2021/12/06 02:50:23;;;;;;;35.60;11.77;;;0.30;99.90;;;;;;4951482;29;20547;-60
2021/12/06 02:52:49;;;;;;;38.75;9.57;;;0.30;99.90;;;;;;4952227;29;20031;-60
2021/12/06 02:58:44;;;;;;;53.40;9.10;;;0.20;99.90;;;;;;4942212;29;20492;-60
2021/12/06 03:01:24;;;;;;;26.92;8.65;;;0.30;99.90;;;;;;4950164;28;20027;-61
2021/12/06 03:03:50;;;;;;;26.45;7.15;;;0.30;99.90;;;;;;4952154;29;20042;-61
2021/12/06 03:06:16;;;;;;;77.70;8.52;;;0.30;99.90;;;;;;4951407;28;20031;-60
2021/12/06 03:09:05;;;;;;;28.05;7.72;;;0.30;99.90;;;;;;4952219;29;20054;-60
2021/12/06 03:11:42;;;;;;;30.45;10.00;;;0.30;99.90;;;;;;4951759;29;20082;-60
2021/12/06 03:14:10;;;;;;;31.73;9.68;;;0.30;99.90;;;;;;4949203;29;20039;-60
2021/12/06 03:16:39;;;;;;;22.17;8.02;;;0.30;99.90;;;;;;4948415;29;20043;-61
2021/12/06 03:19:06;;;;;;;36.35;9.32;;;0.30;99.90;;;;;;4950633;29;20035;-60
2021/12/06 03:21:33;;;;;;;41.38;11.55;;;0.20;99.90;;;;;;4951146;29;20070;-60
2021/12/06 03:24:01;;;;;;;22.15;7.50;;;0.10;99.90;;;;;;4951671;29;20046;-60
2021/12/06 03:26:30;;;;;;;22.27;8.25;;;0.10;99.90;;;;;;4951017;29;20055;-60
2021/12/06 03:28:56;;;;;;;20.73;7.43;;;0.10;99.90;;;;;;4951142;29;20061;-60
2021/12/06 03:31:22;;;;;;;22.50;8.05;;;0.30;99.90;;;;;;4950751;29;20115;-61
2021/12/06 03:33:51;;;;;;;27.15;8.82;;;0.30;99.90;;;;;;4951017;29;20031;-61
2021/12/06 03:36:19;;;;;;;27.13;8.90;;;0.30;99.90;;;;;;4951358;28;20057;-60
2021/12/06 03:38:46;;;;;;;24.67;7.88;;;0.30;99.90;;;;;;4954960;28;20589;-61
2021/12/06 03:41:14;;;;;;;22.88;7.13;;;0.30;99.90;;;;;;4950166;28;20031;-60
2021/12/06 03:43:42;;;;;;;21.25;7.15;;;0.30;99.90;;;;;;4950707;29;20089;-60
2021/12/06 03:46:16;;;;;;;22.15;7.65;;;0.30;99.90;;;;;;4943073;29;20161;-61
2021/12/06 03:48:42;;;;;;;29.77;8.55;;;0.30;99.90;;;;;;4949318;29;20038;-61
2021/12/06 03:51:11;;;;;;;25.45;8.23;;;0.40;99.90;;;;;;4951047;29;20042;-61
2021/12/06 03:53:37;;;;;;;26.05;7.85;;;0.40;99.90;;;;;;4951985;29;21806;-60
2021/12/06 03:56:04;;;;;;;136.57;12.75;;;0.40;99.90;;;;;;4950802;29;20063;-61
2021/12/06 03:58:30;;;;;;;49.25;8.82;;;0.50;99.90;;;;;;4950198;29;20122;-61
2021/12/06 04:00:56;;;;;;;21.10;7.78;;;0.50;99.90;;;;;;4951903;29;20035;-61
2021/12/06 04:03:26;;;;;;;21.17;9.05;;;0.40;99.90;;;;;;4950230;29;20491;-60
2021/12/06 04:05:52;;;;;;;27.10;8.70;;;0.40;99.90;;;;;;4950799;28;20563;-61
2021/12/06 04:08:18;;;;;;;27.13;8.68;;;0.40;99.90;;;;;;4951308;29;20085;-61
2021/12/06 04:10:44;;;;;;;28.20;9.10;;;0.40;99.90;;;;;;4950970;29;20049;-61
2021/12/06 04:13:11;;;;;;;26.17;8.57;;;0.40;99.90;;;;;;4949978;29;20042;-61
2021/12/06 04:15:41;;;;;;;58.25;9.60;;;0.50;99.90;;;;;;4951771;29;20483;-60
2021/12/06 04:18:07;;;;;;;27.15;8.85;;;0.50;99.90;;;;;;4949914;29;20046;-61
2021/12/06 04:20:33;;;;;;;20.92;7.80;;;0.30;99.90;;;;;;4951335;29;20046;-61
2021/12/06 04:22:59;;;;;;;48.42;9.23;;;0.40;99.90;;;;;;4950515;29;20058;-61
2021/12/06 04:25:25;;;;;;;23.75;8.88;;;0.40;99.90;;;;;;4954970;28;20109;-61
2021/12/06 04:27:54;;;;;;;50.15;15.88;;;0.40;99.90;;;;;;4970842;28;20464;-61
2021/12/06 04:30:23;;;;;;;39.38;14.60;;;0.40;99.90;;;;;;4964753;28;20487;-61
2021/12/06 04:32:50;;;;;;;25.55;9.60;;;0.40;99.90;;;;;;4951238;29;20031;-61
2021/12/06 04:35:17;;;;;;;25.73;8.93;;;0.40;99.90;;;;;;4955171;28;20047;-61
2021/12/06 04:37:42;;;;;;;25.88;7.90;;;0.30;99.90;;;;;;4951789;29;20106;-61
2021/12/06 04:40:09;;;;;;;20.08;7.43;;;0.30;99.90;;;;;;4950714;29;20043;-61
2021/12/06 04:42:34;;;;;;;24.67;8.90;;;0.30;99.90;;;;;;4951258;29;20514;-61
2021/12/06 04:45:00;;;;;;;21.42;7.57;;;0.30;99.90;;;;;;4954596;28;20023;-61
2021/12/06 04:47:26;;;;;;;20.90;7.45;;;0.30;99.90;;;;;;4948586;29;20086;-61
2021/12/06 04:49:52;;;;;;;27.63;8.95;;;0.40;99.90;;;;;;4951024;29;20082;-61
2021/12/06 04:52:18;;;;;;;26.15;8.00;;;0.40;99.90;;;;;;4949867;28;20135;-61
2021/12/06 04:54:49;;;;;;;35.60;7.80;;;0.30;99.90;;;;;;4950075;29;20031;-60
2021/12/06 04:57:23;;;;;;;25.20;7.55;;;0.30;99.90;;;;;;4948598;28;20435;-61
2021/12/06 04:59:55;;;;;;;31.23;7.82;;;0.40;99.90;;;;;;4948252;29;20682;-61
2021/12/06 05:02:25;;;;;;;41.67;7.13;;;0.40;99.90;;;;;;4961555;28;20427;-61
2021/12/06 05:04:54;;;;;;;70.78;8.98;;;0.40;99.90;;;;;;4931955;29;20043;-60
2021/12/06 05:07:33;;;;;;;78.10;8.75;;;0.50;99.90;;;;;;4961535;28;20038;-60
2021/12/06 05:09:59;;;;;;;36.38;8.55;;;0.50;99.90;;;;;;4956620;28;20452;-60
2021/12/06 05:12:28;;;;;;;58.28;9.70;;;0.40;99.90;;;;;;4949717;29;20035;-61
2021/12/06 05:14:54;;;;;;;121.28;11.25;;;0.40;99.90;;;;;;4950485;29;20045;-60
2021/12/06 05:17:20;;;;;;;34.10;8.48;;;0.30;99.90;;;;;;4949576;29;20070;-61
2021/12/06 05:19:46;;;;;;;28.67;7.93;;;0.30;99.90;;;;;;4949027;29;20491;-61
2021/12/06 05:22:12;;;;;;;27.05;9.07;;;0.30;99.90;;;;;;4950092;28;20032;-61
2021/12/06 05:24:38;;;;;;;31.67;9.02;;;0.30;99.90;;;;;;4959959;28;20038;-60
2021/12/06 05:27:05;;;;;;;23.05;8.05;;;0.30;99.90;;;;;;4973593;28;20058;-61
2021/12/06 05:29:31;;;;;;;32.15;8.80;;;0.30;99.90;;;;;;4953577;28;20460;-60
2021/12/06 05:31:58;;;;;;;24.58;8.60;;;0.40;99.90;;;;;;4953590;29;20039;-61
2021/12/06 05:34:32;;;;;;;34.05;9.35;;;0.40;99.90;;;;;;4951934;29;20082;-61
2021/12/06 05:36:59;;;;;;;45.45;10.35;;;0.40;99.90;;;;;;4954032;29;20456;-61
2021/12/06 05:39:30;;;;;;;62.58;10.60;;;0.50;99.90;;;;;;4935744;29;20399;-61
2021/12/06 05:41:57;;;;;;;31.42;9.18;;;0.40;99.90;;;;;;4953758;28;20059;-61
2021/12/06 05:44:23;;;;;;;26.95;9.57;;;0.40;99.90;;;;;;4952969;29;20502;-60
2021/12/06 05:46:49;;;;;;;28.50;9.77;;;0.40;99.90;;;;;;4953099;28;20039;-61
2021/12/06 05:49:14;;;;;;;96.03;12.55;;;0.40;99.90;;;;;;4951844;29;20098;-61
2021/12/06 05:51:40;;;;;;;42.17;10.02;;;0.40;99.90;;;;;;4953540;29;20036;-61
2021/12/06 05:54:06;;;;;;;29.00;9.27;;;0.40;99.90;;;;;;4951898;28;20144;-60
2021/12/06 05:56:32;;;;;;;31.88;10.60;;;0.40;99.90;;;;;;4952097;29;20046;-61
2021/12/06 05:58:57;;;;;;;37.58;10.35;;;0.40;99.90;;;;;;4931839;29;20498;-61
2021/12/06 06:01:29;;;;;;;30.13;9.82;;;0.50;99.90;;;;;;4959490;28;20508;-61
2021/12/06 06:03:55;;;;;;;31.70;10.85;;;0.50;99.90;;;;;;4949138;29;20479;-61
2021/12/06 06:06:20;;;;;;;28.55;10.05;;;0.40;99.90;;;;;;4951467;28;20035;-61
2021/12/06 06:08:46;;;;;;;28.55;9.80;;;0.50;99.90;;;;;;4950372;28;20039;-61
2021/12/06 06:11:12;;;;;;;34.97;11.15;;;0.50;99.90;;;;;;4942279;29;20054;-61
2021/12/06 06:13:37;;;;;;;29.05;10.38;;;0.50;99.90;;;;;;4952164;29;20110;-60
2021/12/06 06:16:03;;;;;;;29.08;9.80;;;0.50;99.90;;;;;;4950080;29;20491;-60
2021/12/06 06:18:29;;;;;;;30.27;10.48;;;0.50;99.90;;;;;;4948805;29;20685;-61
2021/12/06 06:20:56;;;;;;;32.22;10.90;;;0.50;99.90;;;;;;4951542;29;20078;-61
2021/12/06 06:23:22;;;;;;;32.65;10.02;;;0.50;99.90;;;;;;4950764;28;20127;-61
2021/12/06 06:25:48;;;;;;;67.75;10.90;;;0.50;99.90;;;;;;4950281;28;20051;-60
2021/12/06 06:28:14;;;;;;;139.15;14.68;;;0.60;99.90;;;;;;4948620;29;20043;-61
2021/12/06 06:30:41;;;;;;;202.95;18.30;;;0.50;99.90;;;;;;4953316;29;20031;-60
2021/12/06 06:33:07;;;;;;;42.35;11.20;;;0.40;99.90;;;;;;4953170;29;20051;-60
2021/12/06 06:35:33;;;;;;;42.95;10.90;;;0.30;99.90;;;;;;4950962;29;20031;-60
2021/12/06 06:38:00;;;;;;;81.10;12.23;;;0.40;99.90;;;;;;4952486;28;20506;-60
2021/12/06 06:40:26;;;;;;;86.55;12.43;;;0.40;99.90;;;;;;4952429;28;20113;-60
2021/12/06 06:42:51;;;;;;;36.50;11.90;;;0.40;99.90;;;;;;4953128;29;20116;-60
2021/12/06 06:45:20;;;;;;;36.42;12.57;;;0.40;99.90;;;;;;4952313;29;20155;-60
2021/12/06 06:47:47;;;;;;;42.67;11.93;;;0.50;99.90;;;;;;4952822;28;20027;-61
2021/12/06 06:50:13;;;;;;;35.72;11.23;;;0.50;99.90;;;;;;4952309;28;20026;-61
2021/12/06 06:52:40;;;;;;;33.33;10.32;;;0.50;99.90;;;;;;4952003;28;20050;-61
2021/12/06 06:55:09;;;;;;;34.08;10.38;;;0.40;99.90;;;;;;4952767;29;20032;-60
2021/12/06 06:57:35;;;;;;;36.33;12.15;;;0.40;99.90;;;;;;4951946;29;20040;-60
2021/12/06 07:00:02;;;;;;;37.90;12.90;;;0.50;99.90;;;;;;4952808;29;20054;-60
2021/12/06 07:02:27;;;;;;;36.28;11.98;;;0.40;99.90;;;;;;4951802;29;20027;-60
2021/12/06 07:04:53;;;;;;;44.03;11.77;;;0.40;99.90;;;;;;4952049;29;20101;-60
2021/12/06 07:07:19;;;;;;;70.53;13.10;;;0.50;99.90;;;;;;4951780;29;20424;-60
2021/12/06 07:09:45;;;;;;;274.10;22.30;;;0.50;99.90;;;;;;4951689;29;20035;-60
2021/12/06 07:12:17;;;;;;;189.00;18.30;;;0.50;99.90;;;;;;4952621;29;20151;-60
2021/12/06 07:14:45;;;;;;;254.13;20.05;;;0.40;99.90;;;;;;4952147;29;20042;-61
2021/12/06 07:17:11;;;;;;;269.00;20.48;;;0.40;99.90;;;;;;4951834;29;20669;-60
2021/12/06 07:19:37;;;;;;;119.28;14.63;;;0.30;99.90;;;;;;4951608;29;20050;-61
2021/12/06 07:22:04;;;;;;;390.77;25.88;;;0.20;99.90;;;;;;4951752;29;20035;-60
2021/12/06 07:24:29;;;;;;;211.90;21.90;;;0.20;99.90;;;;;;4951169;29;20037;-60
2021/12/06 07:26:56;;;;;;;123.00;15.88;;;0.30;99.90;;;;;;4951971;29;20451;-60
2021/12/06 07:29:22;;;;;;;89.97;14.18;;;0.20;99.90;;;;;;4950656;29;20031;-60
2021/12/06 07:31:48;;;;;;;56.28;13.23;;;0.20;99.90;;;;;;4951731;29;20400;-61
2021/12/06 07:34:14;;;;;;;51.58;12.60;;;0.30;99.90;;;;;;4934600;29;20459;-60
2021/12/06 07:36:40;;;;;;;39.17;12.30;;;0.30;99.90;;;;;;4950870;29;20122;-60
2021/12/06 07:39:06;;;;;;;43.60;11.85;;;0.30;99.90;;;;;;4951826;29;20429;-60
2021/12/06 07:41:32;;;;;;;36.08;11.60;;;0.30;99.90;;;;;;4951221;29;20035;-60
2021/12/06 07:43:58;;;;;;;33.28;10.98;;;0.30;99.90;;;;;;4951744;29;20481;-60
2021/12/06 07:46:25;;;;;;;36.38;11.38;;;0.40;99.90;;;;;;4950944;29;20597;-60
2021/12/06 07:48:54;;;;;;;33.22;10.75;;;0.40;99.90;;;;;;4951073;28;20027;-61
2021/12/06 07:51:25;;;;;;;31.92;9.98;;;0.40;99.90;;;;;;4951085;29;20045;-60
2021/12/06 07:53:52;;;;;;;33.15;10.20;;;0.30;99.90;;;;;;4951606;29;20467;-60
2021/12/06 07:56:19;;;;;;;35.53;9.88;;;0.40;99.90;;;;;;4951045;29;20730;-60
2021/12/06 07:58:46;;;;;;;37.75;12.10;;;0.40;99.90;;;;;;4952199;29;20089;-60
2021/12/06 08:01:12;;;;;;;37.53;11.40;;;0.40;99.90;;;;;;4951359;29;20023;-60
2021/12/06 08:03:41;;;;;;;32.90;11.02;;;0.50;99.90;;;;;;4949697;29;20023;-60
2021/12/06 08:06:08;;;;;;;40.88;12.73;;;0.50;99.90;;;;;;4950907;29;20326;-60
2021/12/06 08:08:34;;;;;;;38.33;12.68;;;0.60;99.90;;;;;;4950974;29;20023;-61
2021/12/06 08:11:09;;;;;;;39.45;12.05;;;0.60;99.90;;;;;;4951096;29;20460;-60
2021/12/06 08:13:36;;;;;;;41.22;13.45;;;0.60;99.90;;;;;;4950298;28;20042;-61
2021/12/06 08:16:07;;;;;;;39.67;11.95;;;0.60;99.90;;;;;;4950040;29;20078;-61
2021/12/06 08:18:33;;;;;;;37.42;11.80;;;0.60;99.90;;;;;;4950572;29;20042;-61
2021/12/06 08:21:00;;;;;;;36.65;12.75;;;0.60;99.90;;;;;;4951675;29;20028;-60
2021/12/06 08:23:27;;;;;;;31.75;10.60;;;0.70;99.90;;;;;;4950546;29;20376;-60
2021/12/06 08:25:53;;;;;;;37.17;12.25;;;0.70;99.90;;;;;;4951153;29;20055;-60
2021/12/06 08:28:20;;;;;;;38.50;12.25;;;0.70;99.90;;;;;;4950343;29;20113;-61
2021/12/06 08:30:47;;;;;;;34.67;11.95;;;0.70;99.90;;;;;;4951277;29;20027;-61
2021/12/06 08:33:14;;;;;;;32.13;11.48;;;0.80;99.90;;;;;;4951044;29;20027;-60
2021/12/06 08:35:48;;;;;;;36.30;12.18;;;0.90;99.90;;;;;;4950779;29;20024;-60
2021/12/06 08:38:15;;;;;;;41.00;13.52;;;0.90;99.90;;;;;;4951206;29;20122;-61
2021/12/06 08:40:43;;;;;;;35.42;12.13;;;0.90;99.90;;;;;;4950411;29;20097;-60
2021/12/06 08:43:16;;;;;;;40.80;13.43;;;1.00;99.90;;;;;;4950827;29;20027;-60
2021/12/06 08:45:53;;;;;;;40.72;13.68;;;1.00;99.90;;;;;;4950578;29;20361;-61
2021/12/06 08:48:22;;;;;;;39.80;12.18;;;1.00;99.90;;;;;;4950576;29;20106;-60
2021/12/06 08:50:49;;;;;;;36.63;11.88;;;1.00;99.90;;;;;;4950805;29;20031;-60
2021/12/06 08:53:14;;;;;;;35.53;11.85;;;1.00;99.90;;;;;;4951065;29;20436;-60
2021/12/06 08:55:40;;;;;;;40.38;11.80;;;1.00;99.90;;;;;;4950064;29;20102;-61
2021/12/06 08:58:06;;;;;;;90.68;23.70;;;1.00;99.90;;;;;;4951026;29;20090;-60
2021/12/06 09:00:34;;;;;;;43.35;12.57;;;1.10;99.90;;;;;;4952028;28;20027;-61
2021/12/06 09:03:00;;;;;;;36.85;11.68;;;1.10;99.90;;;;;;4954617;29;20042;-60
2021/12/06 09:05:31;;;;;;;38.22;12.00;;;1.10;99.90;;;;;;4953702;29;20043;-61
2021/12/06 09:07:57;;;;;;;35.30;11.65;;;1.20;99.90;;;;;;4954972;29;20476;-61
2021/12/06 09:10:23;;;;;;;31.13;10.80;;;1.20;99.90;;;;;;4953469;29;20049;-61
2021/12/06 09:12:49;;;;;;;36.47;11.75;;;1.20;99.90;;;;;;4954229;29;20031;-60
2021/12/06 09:15:17;;;;;;;30.80;10.98;;;1.20;99.90;;;;;;4953376;29;20028;-60
2021/12/06 09:17:44;;;;;;;33.83;11.52;;;1.20;99.90;;;;;;4953672;29;20035;-60
2021/12/06 09:20:12;;;;;;;38.25;11.50;;;1.30;99.90;;;;;;4954308;29;20131;-60
2021/12/06 09:22:39;;;;;;;30.70;10.25;;;1.20;99.90;;;;;;4953432;29;20082;-60
2021/12/06 09:25:08;;;;;;;38.25;12.65;;;1.30;99.90;;;;;;4954188;29;20045;-60
2021/12/06 09:27:34;;;;;;;34.65;10.60;;;1.30;99.90;;;;;;4953219;29;20098;-61
2021/12/06 09:30:00;;;;;;;39.55;12.30;;;1.30;99.90;;;;;;4953863;29;20059;-60
2021/12/06 09:32:26;;;;;;;37.92;12.80;;;1.30;99.90;;;;;;4953148;29;20065;-60
2021/12/06 09:34:57;;;;;;;35.92;12.38;;;1.40;99.90;;;;;;4953550;29;20027;-60
2021/12/06 09:37:23;;;;;;;35.03;12.75;;;1.40;99.90;;;;;;4953340;29;20787;-61
2021/12/06 09:39:49;;;;;;;36.47;13.27;;;1.40;99.90;;;;;;4954003;29;20059;-60
2021/12/06 09:42:17;;;;;;;39.63;13.43;;;1.40;99.90;;;;;;4953876;29;20046;-60
2021/12/06 09:44:43;;;;;;;44.75;13.45;;;1.50;99.90;;;;;;4953062;29;20106;-60
2021/12/06 09:47:09;;;;;;;38.92;13.55;;;1.40;99.90;;;;;;4954106;29;20106;-61
2021/12/06 09:49:35;;;;;;;40.30;12.85;;;1.50;99.90;;;;;;4953025;29;20118;-60
2021/12/06 09:52:05;;;;;;;35.63;12.65;;;1.60;99.90;;;;;;4953740;29;20493;-60
2021/12/06 09:54:33;;;;;;;40.17;13.68;;;1.60;99.90;;;;;;4952838;29;20032;-60
2021/12/06 09:57:02;;;;;;;38.50;13.40;;;1.60;99.90;;;;;;4953825;29;20040;-60
2021/12/06 09:59:30;;;;;;;39.35;13.85;;;1.60;99.90;;;;;;4952758;29;20481;-60
2021/12/06 10:02:09;;;;;;;38.92;13.18;;;1.60;99.90;;;;;;4953699;29;20031;-60
2021/12/06 10:04:39;;;;;;;35.22;13.30;;;1.60;99.90;;;;;;4951569;29;20059;-60
2021/12/06 10:07:07;;;;;;;39.75;13.80;;;1.60;99.90;;;;;;4953458;29;20494;-60
2021/12/06 10:09:33;;;;;;;36.58;13.93;;;1.60;99.90;;;;;;4952685;29;20031;-61
2021/12/06 10:12:01;;;;;;;39.97;14.10;;;1.70;99.90;;;;;;4952598;28;20035;-61
2021/12/06 10:14:27;;;;;;;36.97;13.40;;;1.80;99.90;;;;;;4952719;29;20085;-60
2021/12/06 10:16:53;;;;;;;35.63;13.18;;;1.70;99.90;;;;;;4953079;29;20062;-60
2021/12/06 10:19:25;;;;;;;38.05;13.57;;;1.70;99.90;;;;;;4952948;28;20122;-60
2021/12/06 10:21:52;;;;;;;34.22;12.93;;;1.70;99.90;;;;;;4952682;29;20027;-60
2021/12/06 10:24:23;;;;;;;38.90;14.20;;;1.80;99.90;;;;;;4953269;29;20058;-60
2021/12/06 10:26:49;;;;;;;40.45;13.50;;;1.80;99.90;;;;;;4952108;29;20058;-60
2021/12/06 10:29:22;;;;;;;38.38;14.15;;;1.80;99.90;;;;;;4953241;29;20038;-60
2021/12/06 10:31:52;;;;;;;37.08;14.07;;;1.80;99.90;;;;;;4952276;29;20031;-60
2021/12/06 10:34:24;;;;;;;38.00;14.10;;;1.80;99.90;;;;;;4949584;29;20039;-60
2021/12/06 10:36:52;;;;;;;38.85;13.90;;;1.90;99.90;;;;;;4949899;29;20031;-60
2021/12/06 10:39:18;;;;;;;33.60;12.23;;;1.80;99.90;;;;;;4950861;29;20795;-60
2021/12/06 10:41:48;;;;;;;33.88;12.30;;;1.80;99.90;;;;;;4950492;29;20035;-60
2021/12/06 10:44:14;;;;;;;;;;;1.70;99.90;;;;;;4950325;29;20055;-60
2021/12/06 10:46:49;;;;;;;37.58;11.93;;;1.70;99.90;;;;;;4951110;29;20341;-60
2021/12/06 10:49:23;;;;;;;35.97;12.45;;;1.70;99.90;;;;;;4951236;29;20501;-60
2021/12/06 10:51:49;;;;;;;38.58;13.27;;;1.70;99.90;;;;;;4947782;29;20031;-60
2021/12/06 10:54:31;;;;;;;39.67;12.68;;;1.90;99.90;;;;;;4950046;29;20033;-60
2021/12/06 10:57:01;;;;;;;41.70;12.95;;;1.80;99.90;;;;;;4947839;29;20094;-60
2021/12/06 10:59:31;;;;;;;38.67;11.93;;;2.00;99.90;;;;;;4949304;29;20126;-60
2021/12/06 11:02:23;;;;;;;32.50;11.48;;;2.00;99.90;;;;;;4947717;28;20466;-60
2021/12/06 11:04:49;;;;;;;33.50;11.55;;;2.00;99.90;;;;;;4946790;29;20035;-60
2021/12/06 11:07:14;;;;;;;38.72;11.55;;;2.00;99.90;;;;;;4951092;29;20443;-60
2021/12/06 11:09:43;;;;;;;36.20;11.80;;;2.00;99.90;;;;;;4951150;29;20480;-60
2021/12/06 11:12:16;;;;;;;35.60;12.05;;;2.00;99.90;;;;;;4951723;29;20070;-60
2021/12/06 11:14:43;;;;;;;33.75;11.15;;;2.00;99.90;;;;;;4946946;29;20790;-60
2021/12/06 11:17:16;;;;;;;32.90;11.68;;;2.00;99.90;;;;;;4950761;29;20035;-60
2021/12/06 11:19:42;;;;;;;33.40;11.05;;;2.10;99.90;;;;;;4949938;29;20055;-60
2021/12/06 11:22:11;;;;;;;29.15;9.90;;;2.10;99.90;;;;;;4950784;28;20039;-60
2021/12/06 11:24:39;;;;;;;25.75;9.43;;;2.10;99.90;;;;;;4950856;29;20461;-60
2021/12/06 11:27:37;;;;;;;28.70;10.35;;;2.10;99.90;;;;;;4949847;29;20078;-60
2021/12/06 11:30:10;;;;;;;28.38;9.20;;;2.20;99.90;;;;;;4948362;29;20062;-60
2021/12/06 11:32:38;;;;;;;27.08;8.85;;;2.20;99.90;;;;;;4950404;29;20395;-60
2021/12/06 11:35:11;;;;;;;24.48;9.07;;;2.20;99.90;;;;;;4950663;29;20027;-60
2021/12/06 11:37:53;;;;;;;25.90;8.77;;;2.20;99.90;;;;;;4949943;29;20043;-60
2021/12/06 11:40:33;;;;;;;21.30;8.38;;;2.20;99.90;;;;;;4946447;29;20069;-60
2021/12/06 11:43:14;;;;;;;24.67;8.98;;;2.20;99.90;;;;;;4946070;29;20098;-60
2021/12/06 11:45:49;;;;;;;27.20;9.77;;;2.20;99.90;;;;;;4948467;29;20036;-60
2021/12/06 11:48:24;;;;;;;24.50;8.50;;;2.30;99.90;;;;;;4950094;29;20118;-60
2021/12/06 11:50:51;;;;;;;26.58;9.40;;;2.20;99.90;;;;;;4950934;29;20035;-59
2021/12/06 11:53:21;;;;;;;25.33;9.30;;;2.10;99.90;;;;;;4951619;29;20023;-59
2021/12/06 11:56:01;;;;;;;30.05;9.63;;;2.00;99.90;;;;;;4951189;29;20047;-59
2021/12/06 11:58:33;;;;;;;23.20;7.22;;;2.00;99.90;;;;;;4951352;29;20043;-59
2021/12/06 12:01:10;;;;;;;30.05;9.63;;;2.00;99.90;;;;;;4934128;29;20034;-59
2021/12/06 12:03:37;;;;;;;33.50;10.43;;;2.00;99.90;;;;;;4949691;29;20473;-59
2021/12/06 12:06:25;;;;;;;34.42;10.93;;;2.00;99.90;;;;;;4951772;29;20035;-59
2021/12/06 12:09:07;;;;;;;29.38;10.43;;;2.00;99.90;;;;;;4951027;29;20039;-60
2021/12/06 12:11:57;;;;;;;31.50;10.15;;;2.00;99.90;;;;;;4950786;29;20035;-60
2021/12/06 12:14:33;;;;;;;31.20;11.65;;;2.00;99.90;;;;;;4951257;29;20051;-60
2021/12/06 12:17:02;;;;;;;35.38;10.93;;;1.90;99.90;;;;;;4951280;29;20047;-60
2021/12/06 12:19:28;;;;;;;28.73;10.18;;;1.90;99.90;;;;;;4951149;29;20035;-60
2021/12/06 12:21:54;;;;;;;37.38;11.43;;;1.80;99.90;;;;;;4950503;29;20023;-60
2021/12/06 12:24:21;;;;;;;36.97;11.52;;;1.80;99.90;;;;;;4951809;29;20050;-60
2021/12/06 12:26:59;;;;;;;36.22;10.93;;;1.70;99.90;;;;;;4961688;28;20100;-59
2021/12/06 12:29:27;;;;;;;43.92;13.25;;;1.70;99.90;;;;;;4951747;29;20027;-59
2021/12/06 12:32:01;;;;;;;35.03;12.20;;;1.70;99.90;;;;;;4948351;29;20031;-60
2021/12/06 12:34:29;;;;;;;41.95;12.95;;;1.70;99.90;;;;;;4951166;28;20023;-59
2021/12/06 12:36:56;;;;;;;41.33;13.80;;;1.70;99.90;;;;;;4948458;28;20558;-59
2021/12/06 12:39:22;;;;;;;44.30;13.88;;;1.70;99.90;;;;;;4952372;28;20035;-59
2021/12/06 12:41:55;;;;;;;40.88;14.07;;;1.70;99.90;;;;;;4950969;29;20472;-59
2021/12/06 12:44:22;;;;;;;44.83;14.88;;;1.80;99.90;;;;;;4951232;29;20123;-59
2021/12/06 12:46:50;;;;;;;43.00;13.95;;;1.90;99.90;;;;;;4952071;28;20563;-59
2021/12/06 12:49:19;;;;;;;45.83;15.13;;;1.90;99.90;;;;;;4954417;29;20031;-61
2021/12/06 12:51:52;;;;;;;43.47;13.73;;;2.00;99.90;;;;;;4952708;29;20477;-61
2021/12/06 12:54:25;;;;;;;39.75;13.63;;;1.90;99.90;;;;;;4951635;28;20553;-61
2021/12/06 12:56:57;;;;;;;42.03;13.50;;;1.90;99.90;;;;;;4952195;29;20556;-60